createdAt,value
2024-03-05T00:02:00.157Z,99.99
2024-03-05T00:04:30.116Z,99.99
2024-03-05T00:07:01.188Z,99.99
2024-03-05T00:09:32.687Z,99.99
2024-03-05T00:12:05.958Z,99.99
2024-03-05T00:14:36.157Z,99.99
2024-03-05T00:17:06.654Z,99.99
2024-03-05T00:19:39.070Z,99.99
2024-03-05T00:22:10.904Z,99.99
2024-03-05T00:24:41.365Z,99.99
2024-03-05T00:27:11.459Z,99.99
2024-03-05T00:29:44.644Z,99.99
2024-03-05T00:32:16.690Z,99.99
2024-03-05T00:34:46.837Z,99.99
2024-03-05T00:37:16.742Z,99.99
2024-03-05T00:39:47.308Z,99.99
2024-03-05T00:42:18.457Z,99.99
2024-03-05T00:44:50.448Z,99.99
2024-03-05T00:47:24.120Z,99.99
2024-03-05T00:49:54.398Z,99.99
2024-03-05T00:52:26.556Z,99.99
2024-03-05T00:55:00.129Z,99.99
2024-03-05T00:57:33.702Z,99.99
2024-03-05T01:00:04.690Z,99.99
2024-03-05T01:02:36.114Z,99.99
2024-03-05T01:05:09.524Z,99.99
2024-03-05T01:07:40.880Z,99.99
2024-03-05T01:10:12.289Z,99.99
2024-03-05T01:12:43.367Z,99.99
2024-03-05T01:15:15.367Z,99.99
2024-03-05T01:17:45.608Z,99.99
2024-03-05T01:20:18.597Z,99.99
2024-03-05T01:22:50.133Z,99.99
2024-03-05T01:25:21.894Z,99.99
2024-03-05T01:27:52.188Z,99.99
2024-03-05T01:30:22.093Z,99.99
2024-03-05T01:32:53.848Z,99.99
2024-03-05T01:35:25.486Z,99.99
2024-03-05T01:37:56.721Z,99.99
2024-03-05T01:40:27.425Z,99.99
2024-03-05T01:42:57.441Z,99.99
2024-03-05T01:45:28.425Z,99.99
2024-03-05T01:48:02.080Z,99.99
2024-03-05T01:50:33.146Z,99.99
2024-03-05T01:53:04.110Z,99.99
2024-03-05T01:55:37.535Z,99.99
2024-03-05T01:58:11.840Z,99.99
2024-03-05T02:00:42.811Z,99.99
2024-03-05T02:03:13.590Z,99.99
2024-03-05T02:05:51.550Z,99.99
2024-03-05T02:08:23.686Z,99.99
2024-03-05T02:10:54.633Z,99.99
2024-03-05T02:13:25.513Z,99.99
2024-03-05T02:15:57.343Z,99.99
2024-03-05T02:18:28.765Z,99.99
2024-03-05T02:21:05.398Z,99.99
2024-03-05T02:23:35.531Z,99.99
2024-03-05T02:26:08.007Z,99.99
2024-03-05T02:28:40.996Z,99.99
2024-03-05T02:31:11.198Z,99.99
2024-03-05T02:33:42.300Z,99.99
2024-03-05T02:36:14.384Z,99.99
2024-03-05T02:38:45.778Z,99.99
2024-03-05T02:41:16.485Z,99.99
2024-03-05T02:43:48.427Z,99.99
2024-03-05T02:46:20.789Z,99.99
2024-03-05T02:48:51.719Z,99.99
2024-03-05T02:51:21.752Z,99.99
2024-03-05T02:53:51.967Z,99.99
2024-03-05T02:56:22.925Z,99.99
2024-03-05T02:58:54.469Z,99.99
2024-03-05T03:01:25.841Z,99.99
2024-03-05T03:03:56.800Z,99.99
2024-03-05T03:06:26.892Z,99.99
2024-03-05T03:08:58.843Z,99.99
2024-03-05T03:11:30.361Z,99.99
2024-03-05T03:14:00.613Z,99.99
2024-03-05T03:16:30.630Z,99.99
2024-03-05T03:19:01.229Z,99.99
2024-03-05T03:21:32.985Z,99.99
2024-03-05T03:24:04.834Z,99.99
2024-03-05T03:26:35.473Z,99.99
2024-03-05T03:29:07.864Z,99.99
2024-03-05T03:31:41.645Z,99.99
2024-03-05T03:34:13.038Z,99.99
2024-03-05T03:36:43.685Z,99.99
2024-03-05T03:39:26.026Z,99.99
2024-03-05T03:41:58.528Z,99.99
2024-03-05T03:44:29.816Z,99.99
2024-03-05T03:47:00.576Z,99.99
2024-03-05T03:49:30.543Z,99.99
2024-03-05T03:52:01.641Z,99.99
2024-03-05T03:54:32.403Z,99.99
2024-03-05T03:57:03.050Z,99.99
2024-03-05T03:59:38.068Z,99.99
2024-03-05T04:02:09.607Z,99.99
2024-03-05T04:04:40.652Z,99.99
2024-03-05T04:07:11.280Z,99.99
2024-03-05T04:09:41.356Z,99.99
2024-03-05T04:12:14.816Z,99.99
2024-03-05T04:14:46.699Z,99.99
2024-03-05T04:17:17.343Z,99.99
2024-03-05T04:19:48.190Z,99.99
2024-03-05T04:22:19.905Z,99.99
2024-03-05T04:25:02.337Z,99.99
2024-03-05T04:27:32.861Z,99.99
2024-03-05T04:30:05.107Z,99.99
2024-03-05T04:32:38.048Z,99.99
2024-03-05T04:35:13.571Z,99.99
2024-03-05T04:37:45.161Z,99.99
2024-03-05T04:40:16.372Z,99.99
2024-03-05T04:42:51.224Z,99.99
2024-03-05T04:45:25.024Z,99.99
2024-03-05T04:47:55.355Z,99.99
2024-03-05T04:50:25.442Z,99.99
2024-03-05T04:52:57.746Z,99.99
2024-03-05T04:55:29.089Z,99.99
2024-03-05T04:57:59.112Z,99.99
2024-03-05T05:00:29.211Z,99.99
2024-03-05T05:03:01.383Z,99.99
2024-03-05T05:05:34.161Z,99.99
2024-03-05T05:08:06.209Z,99.99
2024-03-05T05:10:36.684Z,99.99
2024-03-05T05:13:08.017Z,99.99
2024-03-05T05:15:39.781Z,99.99
2024-03-05T05:18:10.059Z,99.99
2024-03-05T05:20:39.901Z,99.99
2024-03-05T05:23:10.786Z,99.99
2024-03-05T05:25:41.538Z,99.99
2024-03-05T05:28:13.920Z,99.99
2024-03-05T05:30:44.706Z,99.99
2024-03-05T05:33:14.931Z,99.99
2024-03-05T05:35:46.341Z,99.99
2024-03-05T05:38:19.473Z,99.99
2024-03-05T05:40:49.967Z,99.99
2024-03-05T05:43:20.952Z,99.99
2024-03-05T05:45:52.623Z,99.99
2024-03-05T05:48:29.703Z,99.99
2024-03-05T05:51:00.918Z,99.99
2024-03-05T05:53:31.578Z,99.99
2024-03-05T05:56:02.673Z,99.99
2024-03-05T05:58:38.637Z,99.99
2024-03-05T06:01:11.937Z,99.99
2024-03-05T06:03:51.032Z,99.99
2024-03-05T06:06:22.231Z,99.99
2024-03-05T06:08:54.214Z,99.99
2024-03-05T06:11:25.434Z,99.99
2024-03-05T06:13:55.889Z,99.99
2024-03-05T06:16:26.969Z,99.99
2024-03-05T06:18:59.314Z,99.99
2024-03-05T06:21:30.100Z,99.99
2024-03-05T06:24:02.111Z,99.99
2024-03-05T06:26:41.251Z,99.99
2024-03-05T06:29:14.157Z,99.99
2024-03-05T06:31:44.204Z,99.99
2024-03-05T06:34:14.052Z,99.99
2024-03-05T06:36:48.049Z,99.99
2024-03-05T06:39:22.106Z,99.99
2024-03-05T06:41:56.192Z,99.99
2024-03-05T06:44:27.863Z,99.99
2024-03-05T06:46:58.912Z,99.99
2024-03-05T06:49:31.808Z,99.99
2024-03-05T06:52:22.780Z,99.99
2024-03-05T06:55:11.135Z,99.99
2024-03-05T06:57:41.731Z,99.99
2024-03-05T07:00:17.564Z,99.99
2024-03-05T07:02:48.970Z,99.99
2024-03-05T07:05:19.173Z,99.99
2024-03-05T07:07:49.061Z,99.99
2024-03-05T07:10:23.724Z,99.99
2024-03-05T07:12:56.298Z,99.99
2024-03-05T07:15:27.468Z,99.99
2024-03-05T07:17:57.930Z,99.99
2024-03-05T07:20:30.459Z,99.99
2024-03-05T07:23:02.832Z,99.99
2024-03-05T07:25:34.928Z,99.99
2024-03-05T07:28:04.939Z,99.99
2024-03-05T07:30:37.322Z,99.99
2024-03-05T07:33:09.563Z,99.99
2024-03-05T07:35:46.155Z,99.99
2024-03-05T07:38:17.717Z,99.99
2024-03-05T07:40:48.541Z,99.99
2024-03-05T07:43:19.646Z,99.99
2024-03-05T07:45:51.348Z,99.99
2024-03-05T07:48:21.356Z,99.99
2024-03-05T07:50:51.524Z,99.99
2024-03-05T07:53:23.434Z,99.99
2024-03-05T07:55:59.409Z,99.99
2024-03-05T07:58:29.266Z,99.99
2024-03-05T08:01:00.394Z,99.99
2024-03-05T08:03:31.200Z,99.99
2024-03-05T08:06:02.089Z,99.99
2024-03-05T08:08:32.880Z,99.99
2024-03-05T08:11:03.243Z,99.99
2024-03-05T08:13:37.096Z,99.99
2024-03-05T08:16:10.735Z,99.99
2024-03-05T08:18:43.690Z,99.99
2024-03-05T08:21:16.531Z,99.99
2024-03-05T08:23:46.520Z,99.99
2024-03-05T08:26:17.356Z,99.99
2024-03-05T08:28:48.778Z,99.99
2024-03-05T08:31:19.230Z,99.99
2024-03-05T08:33:49.426Z,99.99
2024-03-05T08:36:20.797Z,99.99
2024-03-05T08:38:52.116Z,99.99
2024-03-05T08:41:22.908Z,99.99
2024-03-05T08:43:53.205Z,99.99
2024-03-05T08:46:24.365Z,99.99
2024-03-05T08:48:55.397Z,99.99
2024-03-05T08:51:25.735Z,99.99
2024-03-05T08:53:57.579Z,99.99
2024-03-05T08:56:29.096Z,99.99
2024-03-05T08:59:01.089Z,99.99
2024-03-05T09:01:31.521Z,99.99
2024-03-05T09:04:03.333Z,99.99
2024-03-05T09:06:34.402Z,99.99
2024-03-05T09:09:06.055Z,99.99
2024-03-05T09:11:37.507Z,99.99
2024-03-05T09:14:07.795Z,99.99
2024-03-05T09:16:41.363Z,99.99
2024-03-05T09:19:12.979Z,99.99
2024-03-05T09:21:46.618Z,99.99
2024-03-05T09:24:16.881Z,99.99
2024-03-05T09:26:49.786Z,99.99
2024-03-05T09:29:21.186Z,99.99
2024-03-05T09:31:51.205Z,99.99
2024-03-05T09:34:22.338Z,99.99
2024-03-05T09:36:53.657Z,99.99
2024-03-05T09:39:25.441Z,99.99
2024-03-05T09:41:56.794Z,99.99
2024-03-05T09:44:27.633Z,99.99
2024-03-05T09:47:04.061Z,99.99
2024-03-05T09:49:36.298Z,99.99
2024-03-05T09:52:07.668Z,99.99
2024-03-05T09:54:38.848Z,99.99
2024-03-05T09:57:10.603Z,99.99
2024-03-05T09:59:42.236Z,99.99
2024-03-05T10:02:15.594Z,99.99
2024-03-05T10:04:47.931Z,99.99
2024-03-05T10:07:29.797Z,99.99
2024-03-05T10:10:12.436Z,99.99
2024-03-05T10:12:43.385Z,99.99
2024-03-05T10:15:23.153Z,99.99
2024-03-05T10:17:56.910Z,99.99
2024-03-05T10:20:32.649Z,99.99
2024-03-05T10:23:05.041Z,99.99
2024-03-05T10:25:37.567Z,99.99
2024-03-05T10:28:11.653Z,99.99
2024-03-05T10:30:45.123Z,99.99
2024-03-05T10:33:16.651Z,99.99
2024-03-05T10:35:52.741Z,99.99
2024-03-05T10:38:25.630Z,99.99
2024-03-05T10:40:58.369Z,99.99
2024-03-05T10:43:29.647Z,99.99
2024-03-05T10:45:59.601Z,99.99
2024-03-05T10:48:32.788Z,99.99
2024-03-05T10:51:05.190Z,99.49
2024-03-05T10:53:36.828Z,98.68
2024-03-05T10:56:09.115Z,97.10
2024-03-05T10:58:46.267Z,95.73
2024-03-05T11:01:26.401Z,94.28
2024-03-05T11:03:58.998Z,93.54
2024-03-05T11:06:29.602Z,93.20
2024-03-05T11:09:03.043Z,94.00
2024-03-05T11:11:34.778Z,93.19
2024-03-05T11:14:06.614Z,92.67
2024-03-05T11:16:37.225Z,93.24
2024-03-05T11:19:13.200Z,93.59
2024-03-05T11:21:45.682Z,94.12
2024-03-05T11:24:15.881Z,93.49
2024-03-05T11:26:47.374Z,92.41
2024-03-05T11:29:25.158Z,92.25
2024-03-05T11:32:00.530Z,92.12
2024-03-05T11:34:31.418Z,92.22
2024-03-05T11:37:14.801Z,92.05
2024-03-05T11:39:49.200Z,92.32
2024-03-05T11:42:23.399Z,91.22
2024-03-05T11:44:54.668Z,90.77
2024-03-05T11:47:26.499Z,90.94
2024-03-05T11:49:57.540Z,91.00
2024-03-05T11:52:29.767Z,90.83
2024-03-05T11:55:08.703Z,89.92
2024-03-05T11:57:38.890Z,89.78
2024-03-05T12:00:22.040Z,89.34
2024-03-05T12:02:58.972Z,90.34
2024-03-05T12:05:32.109Z,90.45
2024-03-05T12:08:05.424Z,89.91
2024-03-05T12:10:38.600Z,89.49
2024-03-05T12:13:12.944Z,88.48
2024-03-05T12:15:43.246Z,88.26
2024-03-05T12:18:13.634Z,88.46
2024-03-05T12:20:44.471Z,88.17
2024-03-05T12:23:40.611Z,88.45
2024-03-05T12:26:16.723Z,88.48
2024-03-05T12:28:47.326Z,87.83
2024-03-05T12:31:18.029Z,88.21
2024-03-05T12:33:50.511Z,87.99
2024-03-05T12:36:21.720Z,87.63
2024-03-05T12:38:52.305Z,87.84
2024-03-05T12:41:22.902Z,87.59
2024-03-05T12:43:58.333Z,85.87
2024-03-05T12:46:29.101Z,85.71
2024-03-05T12:49:01.219Z,85.51
2024-03-05T12:51:33.205Z,84.99
2024-03-05T12:54:12.402Z,85.49
2024-03-05T12:56:47.940Z,85.83
2024-03-05T12:59:23.418Z,85.85
2024-03-05T13:01:56.503Z,85.80
2024-03-05T13:04:30.253Z,84.87
2024-03-05T13:07:02.882Z,84.54
2024-03-05T13:09:33.224Z,83.35
2024-03-05T13:12:03.150Z,83.43
2024-03-05T13:14:34.111Z,83.13
2024-03-05T13:17:09.125Z,81.16
2024-03-05T13:19:40.730Z,81.15
2024-03-05T13:22:11.007Z,81.52
2024-03-05T13:24:41.636Z,80.93
2024-03-05T13:27:12.730Z,80.08
2024-03-05T13:29:44.063Z,79.09
2024-03-05T13:32:14.105Z,80.53
2024-03-05T13:34:46.188Z,78.93
2024-03-05T13:37:18.100Z,78.19
2024-03-05T13:39:49.365Z,79.49
2024-03-05T13:42:21.597Z,76.94
2024-03-05T13:44:51.828Z,76.59
2024-03-05T13:47:23.847Z,73.66
2024-03-05T13:49:55.695Z,76.66
2024-03-05T13:52:28.411Z,74.85
2024-03-05T13:54:59.003Z,75.10
2024-03-05T13:57:31.937Z,73.20
2024-03-05T14:00:03.364Z,72.48
2024-03-05T14:02:42.017Z,74.28
2024-03-05T14:05:13.429Z,74.21
2024-03-05T14:07:46.785Z,76.95
2024-03-05T14:10:18.975Z,76.93
2024-03-05T14:12:51.426Z,75.40
2024-03-05T14:15:24.649Z,75.66
2024-03-05T14:17:55.880Z,75.54
2024-03-05T14:20:30.481Z,76.50
2024-03-05T14:23:01.720Z,75.35
2024-03-05T14:25:32.394Z,75.46
2024-03-05T14:28:04.934Z,74.73
2024-03-05T14:30:37.130Z,74.03
2024-03-05T14:33:07.894Z,73.33
2024-03-05T14:35:39.390Z,72.03
2024-03-05T14:38:18.720Z,72.69
2024-03-05T14:40:56.545Z,72.01
2024-03-05T14:43:27.055Z,73.14
2024-03-05T14:45:57.611Z,73.14
2024-03-05T14:48:30.212Z,75.05
2024-03-05T14:51:02.767Z,73.08
2024-03-05T14:53:36.276Z,75.30
2024-03-05T14:56:12.604Z,74.44
2024-03-05T14:58:44.276Z,72.40
2024-03-05T15:01:22.823Z,72.90
2024-03-05T15:03:53.928Z,76.08
2024-03-05T15:06:24.348Z,77.06
2024-03-05T15:08:55.749Z,77.42
2024-03-05T15:11:27.166Z,75.30
2024-03-05T15:13:57.904Z,75.20
2024-03-05T15:16:28.922Z,74.24
2024-03-05T15:19:02.655Z,74.69
2024-03-05T15:21:33.832Z,75.21
2024-03-05T15:24:06.327Z,73.62
2024-03-05T15:26:40.540Z,75.21
2024-03-05T15:29:14.322Z,76.12
2024-03-05T15:31:47.059Z,76.83
2024-03-05T15:34:17.518Z,75.47
2024-03-05T15:36:47.527Z,75.85
2024-03-05T15:39:19.284Z,76.11
2024-03-05T15:41:51.320Z,77.69
2024-03-05T15:44:21.842Z,77.99
2024-03-05T15:46:51.743Z,77.06
2024-03-05T15:49:22.250Z,78.67
2024-03-05T15:51:53.833Z,79.24
2024-03-05T15:54:28.072Z,78.63
2024-03-05T15:57:03.100Z,78.00
2024-03-05T15:59:51.493Z,77.50
2024-03-05T16:02:25.995Z,77.22
2024-03-05T16:05:14.108Z,76.62
2024-03-05T16:07:47.734Z,77.58
2024-03-05T16:10:18.026Z,78.41
2024-03-05T16:12:49.515Z,75.86
2024-03-05T16:15:21.783Z,75.56
2024-03-05T16:17:52.139Z,75.18
2024-03-05T16:20:23.092Z,74.43
2024-03-05T16:22:56.967Z,75.10
2024-03-05T16:25:30.659Z,73.39
2024-03-05T16:28:04.512Z,72.49
2024-03-05T16:30:35.434Z,73.33
2024-03-05T16:33:07.505Z,67.82
2024-03-05T16:35:39.627Z,67.40
2024-03-05T16:38:11.550Z,67.77
2024-03-05T16:40:42.611Z,63.13
2024-03-05T16:43:14.027Z,63.39
2024-03-05T16:45:49.139Z,61.85
2024-03-05T16:48:20.210Z,65.36
2024-03-05T16:50:50.393Z,67.09
2024-03-05T16:53:20.473Z,64.01
2024-03-05T16:55:51.457Z,64.60
2024-03-05T16:58:22.520Z,66.20
2024-03-05T17:00:59.139Z,66.74
2024-03-05T17:03:32.193Z,68.98
2024-03-05T17:06:04.061Z,67.36
2024-03-05T17:08:36.912Z,65.99
2024-03-05T17:11:11.436Z,66.67
2024-03-05T17:13:43.765Z,66.29
2024-03-05T17:16:14.192Z,65.71
2024-03-05T17:18:45.130Z,64.97
2024-03-05T17:21:16.940Z,66.65
2024-03-05T17:23:49.144Z,66.65
2024-03-05T17:26:20.243Z,64.01
2024-03-05T17:28:54.028Z,62.97
2024-03-05T17:31:27.824Z,63.01
2024-03-05T17:33:57.844Z,62.11
2024-03-05T17:36:28.707Z,65.26
2024-03-05T17:39:00.028Z,67.64
2024-03-05T17:41:31.843Z,65.14
2024-03-05T17:44:02.147Z,67.93
2024-03-05T17:46:32.130Z,70.60
2024-03-05T17:49:02.839Z,68.94
2024-03-05T17:51:33.888Z,69.33
2024-03-05T17:54:05.993Z,70.18
2024-03-05T17:56:36.682Z,69.29
2024-03-05T17:59:08.830Z,66.63
2024-03-05T18:01:41.595Z,62.54
2024-03-05T18:04:13.377Z,63.33
2024-03-05T18:06:44.285Z,60.79
2024-03-05T18:09:20.934Z,60.77
2024-03-05T18:11:54.274Z,60.68
2024-03-05T18:14:26.501Z,58.91
2024-03-05T18:16:56.979Z,60.75
2024-03-05T18:19:27.624Z,60.05
2024-03-05T18:21:58.515Z,62.54
2024-03-05T18:24:30.195Z,64.60
2024-03-05T18:27:05.983Z,64.55
2024-03-05T18:29:36.197Z,66.05
2024-03-05T18:32:08.336Z,65.79
2024-03-05T18:34:41.225Z,68.21
2024-03-05T18:37:14.035Z,70.18
2024-03-05T18:39:44.348Z,69.77
2024-03-05T18:42:17.445Z,71.49
2024-03-05T18:44:49.213Z,73.61
2024-03-05T18:47:21.049Z,67.53
2024-03-05T18:49:53.487Z,64.29
2024-03-05T18:52:25.778Z,60.93
2024-03-05T18:54:57.023Z,60.46
2024-03-05T18:57:27.400Z,60.78
2024-03-05T19:00:00.291Z,59.95
2024-03-05T19:02:31.383Z,56.33
2024-03-05T19:05:03.278Z,56.82
2024-03-05T19:07:33.660Z,60.02
2024-03-05T19:10:04.221Z,61.81
2024-03-05T19:12:34.902Z,65.13
2024-03-05T19:15:06.709Z,65.69
2024-03-05T19:17:41.475Z,65.37
2024-03-05T19:20:15.797Z,64.54
2024-03-05T19:22:46.958Z,66.88
2024-03-05T19:25:22.509Z,68.86
2024-03-05T19:27:54.304Z,66.74
2024-03-05T19:30:24.580Z,68.73
2024-03-05T19:32:54.814Z,71.49
2024-03-05T19:35:27.363Z,71.25
2024-03-05T19:38:00.264Z,67.08
2024-03-05T19:40:33.027Z,67.47
2024-03-05T19:43:03.376Z,62.30
2024-03-05T19:45:33.299Z,60.98
2024-03-05T19:48:06.210Z,61.31
2024-03-05T19:50:38.146Z,55.73
2024-03-05T19:53:10.302Z,55.62
2024-03-05T19:55:40.470Z,58.49
2024-03-05T19:58:12.590Z,54.45
2024-03-05T20:00:46.275Z,55.80
2024-03-05T20:03:17.060Z,56.10
2024-03-05T20:05:51.407Z,53.27
2024-03-05T20:08:22.929Z,53.79
2024-03-05T20:10:54.419Z,54.70
2024-03-05T20:13:25.081Z,52.68
2024-03-05T20:15:57.195Z,53.16
2024-03-05T20:18:28.722Z,53.90
2024-03-05T20:21:01.361Z,55.41
2024-03-05T20:23:31.695Z,56.81
2024-03-05T20:26:01.683Z,54.71
2024-03-05T20:28:31.908Z,54.01
2024-03-05T20:31:03.187Z,53.72
2024-03-05T20:33:34.597Z,54.91
2024-03-05T20:36:04.874Z,54.07
2024-03-05T20:38:34.827Z,56.41
2024-03-05T20:41:07.211Z,56.75
2024-03-05T20:43:40.787Z,57.64
2024-03-05T20:46:12.149Z,58.36
2024-03-05T20:48:42.199Z,59.25
2024-03-05T20:51:12.101Z,59.21
2024-03-05T20:53:44.783Z,59.81
2024-03-05T20:56:17.271Z,60.75
2024-03-05T20:58:48.085Z,61.30
2024-03-05T21:01:18.493Z,61.48
2024-03-05T21:03:48.958Z,62.13
2024-03-05T21:06:20.304Z,62.65
2024-03-05T21:08:52.383Z,62.46
2024-03-05T21:11:23.323Z,63.81
2024-03-05T21:13:53.609Z,63.57
2024-03-05T21:16:25.126Z,63.17
2024-03-05T21:18:57.819Z,63.99
2024-03-05T21:21:28.289Z,64.30
2024-03-05T21:23:58.647Z,65.19
2024-03-05T21:26:44.791Z,64.69
2024-03-05T21:29:20.881Z,65.62
2024-03-05T21:31:53.114Z,65.43
2024-03-05T21:34:23.385Z,67.86
2024-03-05T21:36:53.330Z,69.43
2024-03-05T21:39:25.409Z,70.30
2024-03-05T21:41:58.042Z,69.83
2024-03-05T21:44:35.048Z,71.04
2024-03-05T21:47:12.274Z,72.72
2024-03-05T21:49:44.630Z,74.43
2024-03-05T21:52:15.725Z,75.62
2024-03-05T21:54:45.965Z,76.66
2024-03-05T21:57:16.014Z,77.45
2024-03-05T21:59:47.277Z,78.07
2024-03-05T22:02:18.654Z,78.41
2024-03-05T22:04:50.609Z,79.16
2024-03-05T22:07:21.062Z,79.38
2024-03-05T22:09:51.471Z,79.04
2024-03-05T22:12:22.221Z,78.95
2024-03-05T22:14:54.378Z,76.82
2024-03-05T22:17:24.525Z,74.81
2024-03-05T22:19:54.452Z,73.58
2024-03-05T22:22:29.604Z,70.92
2024-03-05T22:25:01.222Z,70.30
2024-03-05T22:27:32.413Z,69.67
2024-03-05T22:30:08.085Z,69.18
2024-03-05T22:32:54.019Z,70.03
2024-03-05T22:35:25.193Z,70.49
2024-03-05T22:37:58.268Z,70.95
2024-03-05T22:40:28.457Z,72.22
2024-03-05T22:42:58.697Z,73.07
2024-03-05T22:45:30.349Z,74.21
2024-03-05T22:49:04.437Z,72.75
2024-03-05T22:51:36.145Z,74.29
2024-03-05T22:54:15.726Z,75.49
2024-03-05T22:56:50.213Z,75.09
2024-03-05T22:59:21.429Z,75.86
2024-03-05T23:01:53.288Z,76.11
2024-03-05T23:04:24.686Z,76.26
2024-03-05T23:06:55.990Z,76.79
2024-03-05T23:09:26.141Z,76.70
2024-03-05T23:11:59.937Z,76.60
2024-03-05T23:14:30.328Z,77.25
2024-03-05T23:17:00.244Z,77.54
2024-03-05T23:19:32.259Z,77.24
2024-03-05T23:22:06.592Z,77.14
2024-03-05T23:24:36.859Z,77.18
2024-03-05T23:27:06.998Z,78.17
2024-03-05T23:29:37.502Z,78.74
2024-03-05T23:32:07.694Z,78.87
2024-03-05T23:34:39.268Z,79.16
2024-03-05T23:37:10.388Z,79.24
2024-03-05T23:39:41.650Z,80.07
2024-03-05T23:42:12.631Z,80.36
2024-03-05T23:44:43.577Z,80.48
2024-03-05T23:47:14.839Z,81.80
2024-03-05T23:49:46.697Z,82.95
2024-03-05T23:52:17.670Z,83.74
2024-03-05T23:54:49.244Z,84.19
2024-03-05T23:57:21.030Z,84.77
2024-03-05T23:59:51.003Z,85.01
